sensor_id;sensor_type;location;lat;lon;timestamp;P1;P2;P0
73825;PMS5003;64145;55.060;73.168;2023-02-12T00:00:25;15.00;14.00;8.00
73825;PMS5003;64145;55.060;73.168;2023-02-12T00:02:51;17.00;16.00;8.00
73825;PMS5003;64145;55.060;73.168;2023-02-12T00:05:17;17.00;16.00;9.00
73825;PMS5003;64145;55.060;73.168;2023-02-12T00:07:42;16.00;15.00;7.00
73825;PMS5003;64145;55.060;73.168;2023-02-12T00:10:13;15.25;15.00;7.00
73825;PMS5003;64145;55.060;73.168;2023-02-12T00:12:44;15.25;14.75;7.00
73825;PMS5003;64145;55.060;73.168;2023-02-12T00:15:20;18.00;16.00;9.00
73825;PMS5003;64145;55.060;73.168;2023-02-12T00:17:45;14.00;13.00;8.00
73825;PMS5003;64145;55.060;73.168;2023-02-12T00:20:11;11.33;10.00;7.00
73825;PMS5003;64145;55.060;73.168;2023-02-12T00:22:42;12.00;11.25;6.00
73825;PMS5003;64145;55.060;73.168;2023-02-12T00:25:07;13.00;12.00;5.00
73825;PMS5003;64145;55.060;73.168;2023-02-12T00:27:34;15.25;13.25;8.00
73825;PMS5003;64145;55.060;73.168;2023-02-12T00:30:05;14.00;13.00;6.00
73825;PMS5003;64145;55.060;73.168;2023-02-12T00:32:30;15.00;13.75;6.25
73825;PMS5003;64145;55.060;73.168;2023-02-12T00:34:56;19.67;18.00;11.67
73825;PMS5003;64145;55.060;73.168;2023-02-12T00:37:21;27.00;21.00;14.00
73825;PMS5003;64145;55.060;73.168;2023-02-12T00:39:57;26.00;21.00;13.25
73825;PMS5003;64145;55.060;73.168;2023-02-12T00:42:23;27.00;22.00;13.00
73825;PMS5003;64145;55.060;73.168;2023-02-12T00:44:59;26.75;21.25;13.00
73825;PMS5003;64145;55.060;73.168;2023-02-12T00:47:29;27.00;21.50;13.00
73825;PMS5003;64145;55.060;73.168;2023-02-12T00:49:55;22.67;18.67;11.67
73825;PMS5003;64145;55.060;73.168;2023-02-12T00:52:20;19.00;17.00;9.00
73825;PMS5003;64145;55.060;73.168;2023-02-12T00:54:46;14.33;12.67;7.00
73825;PMS5003;64145;55.060;73.168;2023-02-12T00:57:18;19.00;14.00;8.50
73825;PMS5003;64145;55.060;73.168;2023-02-12T00:59:43;20.00;17.33;10.00
73825;PMS5003;64145;55.060;73.168;2023-02-12T01:02:14;20.50;18.00;11.50
73825;PMS5003;64145;55.060;73.168;2023-02-12T01:04:50;21.00;18.00;11.00
73825;PMS5003;64145;55.060;73.168;2023-02-12T01:07:16;23.00;19.67;12.00
73825;PMS5003;64145;55.060;73.168;2023-02-12T01:09:41;23.00;20.00;11.00
73825;PMS5003;64145;55.060;73.168;2023-02-12T01:12:07;24.00;19.67;12.00
73825;PMS5003;64145;55.060;73.168;2023-02-12T01:14:32;23.00;19.00;11.00
73825;PMS5003;64145;55.060;73.168;2023-02-12T01:16:58;21.00;18.00;11.00
73825;PMS5003;64145;55.060;73.168;2023-02-12T01:19:24;22.67;18.00;10.00
73825;PMS5003;64145;55.060;73.168;2023-02-12T01:21:49;21.00;17.33;9.00
73825;PMS5003;64145;55.060;73.168;2023-02-12T01:24:15;19.00;18.00;9.00
73825;PMS5003;64145;55.060;73.168;2023-02-12T01:26:40;19.00;17.33;10.00
73825;PMS5003;64145;55.060;73.168;2023-02-12T01:29:16;18.75;17.00;11.00
73825;PMS5003;64145;55.060;73.168;2023-02-12T01:31:41;15.00;13.00;10.00
73825;PMS5003;64145;55.060;73.168;2023-02-12T01:34:08;14.67;12.67;7.00
73825;PMS5003;64145;55.060;73.168;2023-02-12T01:36:34;16.75;15.00;9.00
73825;PMS5003;64145;55.060;73.168;2023-02-12T01:39:00;19.67;18.00;12.00
73825;PMS5003;64145;55.060;73.168;2023-02-12T01:41:28;16.00;14.00;10.00
73825;PMS5003;64145;55.060;73.168;2023-02-12T01:44:06;17.50;16.00;9.25
73825;PMS5003;64145;55.060;73.168;2023-02-12T01:46:32;15.00;14.50;9.00
73825;PMS5003;64145;55.060;73.168;2023-02-12T01:48:58;16.00;15.00;9.00
73825;PMS5003;64145;55.060;73.168;2023-02-12T01:51:34;21.00;18.25;11.75
73825;PMS5003;64145;55.060;73.168;2023-02-12T01:54:02;22.00;19.00;12.00
73825;PMS5003;64145;55.060;73.168;2023-02-12T01:56:28;22.50;19.00;12.00
73825;PMS5003;64145;55.060;73.168;2023-02-12T01:58:59;21.50;19.00;12.00
73825;PMS5003;64145;55.060;73.168;2023-02-12T02:01:35;24.00;19.25;13.00
73825;PMS5003;64145;55.060;73.168;2023-02-12T02:04:04;24.00;19.00;12.00
73825;PMS5003;64145;55.060;73.168;2023-02-12T02:06:58;22.25;19.25;12.00
73825;PMS5003;64145;55.060;73.168;2023-02-12T02:09:22;19.00;18.00;11.00
73825;PMS5003;64145;55.060;73.168;2023-02-12T02:11:48;19.00;17.00;11.00
73825;PMS5003;64145;55.060;73.168;2023-02-12T02:14:32;18.00;16.25;11.00
73825;PMS5003;64145;55.060;73.168;2023-02-12T02:28:02;22.25;19.00;13.00
73825;PMS5003;64145;55.060;73.168;2023-02-12T02:33:09;22.25;19.00;12.50
73825;PMS5003;64145;55.060;73.168;2023-02-12T02:38:29;24.25;19.75;13.00
73825;PMS5003;64145;55.060;73.168;2023-02-12T02:43:33;16.50;15.00;10.00
73825;PMS5003;64145;55.060;73.168;2023-02-12T02:46:10;17.00;16.00;10.75
73825;PMS5003;64145;55.060;73.168;2023-02-12T02:48:40;18.00;16.00;10.00
73825;PMS5003;64145;55.060;73.168;2023-02-12T02:51:14;16.75;16.25;10.00
73825;PMS5003;64145;55.060;73.168;2023-02-12T02:53:45;21.75;18.25;12.00
73825;PMS5003;64145;55.060;73.168;2023-02-12T02:56:20;26.50;20.75;13.00
73825;PMS5003;64145;55.060;73.168;2023-02-12T02:58:58;31.75;24.00;15.00
73825;PMS5003;64145;55.060;73.168;2023-02-12T03:01:27;31.00;25.00;15.00
73825;PMS5003;64145;55.060;73.168;2023-02-12T03:09:03;26.00;21.00;13.00
73825;PMS5003;64145;55.060;73.168;2023-02-12T03:11:35;20.50;18.00;12.00
73825;PMS5003;64145;55.060;73.168;2023-02-12T03:14:10;21.00;18.00;10.67
73825;PMS5003;64145;55.060;73.168;2023-02-12T03:16:43;15.00;15.00;7.00
73825;PMS5003;64145;55.060;73.168;2023-02-12T03:19:13;14.50;14.50;8.75
73825;PMS5003;64145;55.060;73.168;2023-02-12T03:21:45;18.00;16.75;9.00
73825;PMS5003;64145;55.060;73.168;2023-02-12T03:24:25;16.25;14.75;9.00
73825;PMS5003;64145;55.060;73.168;2023-02-12T03:27:16;16.00;15.00;9.00
73825;PMS5003;64145;55.060;73.168;2023-02-12T03:29:44;15.00;13.75;7.00
73825;PMS5003;64145;55.060;73.168;2023-02-12T03:35:02;19.75;18.00;12.00
73825;PMS5003;64145;55.060;73.168;2023-02-12T03:40:34;15.25;15.00;9.00
73825;PMS5003;64145;55.060;73.168;2023-02-12T03:43:16;12.25;11.25;6.00
73825;PMS5003;64145;55.060;73.168;2023-02-12T03:45:44;13.25;12.00;7.25
73825;PMS5003;64145;55.060;73.168;2023-02-12T03:48:27;13.25;12.75;7.00
73825;PMS5003;64145;55.060;73.168;2023-02-12T03:51:29;14.50;14.00;7.25
73825;PMS5003;64145;55.060;73.168;2023-02-12T03:53:56;18.00;17.25;10.25
73825;PMS5003;64145;55.060;73.168;2023-02-12T03:56:26;22.00;18.25;12.00
73825;PMS5003;64145;55.060;73.168;2023-02-12T03:58:54;25.00;20.00;13.00
73825;PMS5003;64145;55.060;73.168;2023-02-12T04:01:19;27.00;22.00;14.00
73825;PMS5003;64145;55.060;73.168;2023-02-12T04:03:45;27.00;21.33;14.00
73825;PMS5003;64145;55.060;73.168;2023-02-12T04:06:21;28.25;23.00;14.00
73825;PMS5003;64145;55.060;73.168;2023-02-12T04:08:51;26.00;21.25;14.00
73825;PMS5003;64145;55.060;73.168;2023-02-12T04:14:13;21.00;19.00;12.00
73825;PMS5003;64145;55.060;73.168;2023-02-12T04:16:58;19.50;17.75;11.00
73825;PMS5003;64145;55.060;73.168;2023-02-12T04:20:01;21.25;18.25;10.00
73825;PMS5003;64145;55.060;73.168;2023-02-12T04:27:44;17.00;15.50;7.00
73825;PMS5003;64145;55.060;73.168;2023-02-12T04:30:20;15.00;13.00;6.00
73825;PMS5003;64145;55.060;73.168;2023-02-12T04:32:50;15.00;14.00;6.00
73825;PMS5003;64145;55.060;73.168;2023-02-12T04:40:39;24.00;20.50;12.50
73825;PMS5003;64145;55.060;73.168;2023-02-12T04:43:06;27.25;23.00;15.00
73825;PMS5003;64145;55.060;73.168;2023-02-12T04:45:32;30.25;25.00;16.25
73825;PMS5003;64145;55.060;73.168;2023-02-12T04:47:58;30.25;25.00;15.50
73825;PMS5003;64145;55.060;73.168;2023-02-12T04:50:24;31.00;25.00;15.00
73825;PMS5003;64145;55.060;73.168;2023-02-12T04:52:53;27.50;22.00;14.50
73825;PMS5003;64145;55.060;73.168;2023-02-12T04:55:19;29.00;22.00;14.00
73825;PMS5003;64145;55.060;73.168;2023-02-12T04:57:44;27.67;20.33;12.67
73825;PMS5003;64145;55.060;73.168;2023-02-12T05:00:14;27.00;21.75;13.25
73825;PMS5003;64145;55.060;73.168;2023-02-12T05:02:50;29.00;24.00;14.00
73825;PMS5003;64145;55.060;73.168;2023-02-12T05:05:16;25.00;21.00;13.00
73825;PMS5003;64145;55.060;73.168;2023-02-12T05:07:41;27.00;22.00;13.67
73825;PMS5003;64145;55.060;73.168;2023-02-12T05:10:07;28.00;22.00;14.00
73825;PMS5003;64145;55.060;73.168;2023-02-12T05:12:33;28.00;22.00;14.00
73825;PMS5003;64145;55.060;73.168;2023-02-12T05:14:58;30.00;23.00;14.00
73825;PMS5003;64145;55.060;73.168;2023-02-12T05:17:24;30.67;24.33;14.33
73825;PMS5003;64145;55.060;73.168;2023-02-12T05:19:59;30.00;24.00;15.50
73825;PMS5003;64145;55.060;73.168;2023-02-12T05:22:25;32.33;26.00;16.33
73825;PMS5003;64145;55.060;73.168;2023-02-12T05:25:01;33.50;26.25;16.50
73825;PMS5003;64145;55.060;73.168;2023-02-12T05:27:26;33.67;26.33;17.00
73825;PMS5003;64145;55.060;73.168;2023-02-12T05:29:57;35.00;27.50;17.00
73825;PMS5003;64145;55.060;73.168;2023-02-12T05:32:28;35.50;28.00;17.50
73825;PMS5003;64145;55.060;73.168;2023-02-12T05:34:54;35.00;29.00;17.00
73825;PMS5003;64145;55.060;73.168;2023-02-12T05:37:19;33.00;26.00;17.00
73825;PMS5003;64145;55.060;73.168;2023-02-12T05:39:47;33.00;27.00;17.00
73825;PMS5003;64145;55.060;73.168;2023-02-12T05:42:18;33.00;26.00;17.00
73825;PMS5003;64145;55.060;73.168;2023-02-12T05:44:53;31.50;25.00;16.00
73825;PMS5003;64145;55.060;73.168;2023-02-12T05:47:19;29.67;24.33;15.33
73825;PMS5003;64145;55.060;73.168;2023-02-12T05:49:44;31.33;24.33;15.33
73825;PMS5003;64145;55.060;73.168;2023-02-12T05:52:10;35.00;27.67;16.00
73825;PMS5003;64145;55.060;73.168;2023-02-12T05:54:35;35.33;28.00;17.33
73825;PMS5003;64145;55.060;73.168;2023-02-12T05:57:01;36.00;28.00;18.00
73825;PMS5003;64145;55.060;73.168;2023-02-12T05:59:26;36.00;28.33;18.00
73825;PMS5003;64145;55.060;73.168;2023-02-12T06:01:52;36.00;29.00;18.00
73825;PMS5003;64145;55.060;73.168;2023-02-12T06:04:22;37.67;29.00;18.00
73825;PMS5003;64145;55.060;73.168;2023-02-12T06:06:58;39.50;30.50;20.00
73825;PMS5003;64145;55.060;73.168;2023-02-12T06:09:24;47.50;40.75;23.25
73825;PMS5003;64145;55.060;73.168;2023-02-12T06:11:50;48.00;41.00;23.00
73825;PMS5003;64145;55.060;73.168;2023-02-12T06:14:17;45.00;37.00;21.00
73825;PMS5003;64145;55.060;73.168;2023-02-12T06:16:44;44.00;35.00;21.25
73825;PMS5003;64145;55.060;73.168;2023-02-12T06:19:10;42.00;33.00;21.00
73825;PMS5003;64145;55.060;73.168;2023-02-12T06:21:35;44.33;34.67;21.00
73825;PMS5003;64145;55.060;73.168;2023-02-12T06:24:06;40.00;31.00;19.50
73825;PMS5003;64145;55.060;73.168;2023-02-12T06:26:32;31.67;25.33;15.00
73825;PMS5003;64145;55.060;73.168;2023-02-12T06:28:57;32.67;25.67;16.67
73825;PMS5003;64145;55.060;73.168;2023-02-12T06:31:29;32.00;26.25;16.00
73825;PMS5003;64145;55.060;73.168;2023-02-12T06:33:56;32.00;25.50;16.00
73825;PMS5003;64145;55.060;73.168;2023-02-12T06:36:21;32.50;26.00;15.50
73825;PMS5003;64145;55.060;73.168;2023-02-12T06:38:47;33.00;27.00;16.33
73825;PMS5003;64145;55.060;73.168;2023-02-12T06:41:13;35.00;27.33;17.33
73825;PMS5003;64145;55.060;73.168;2023-02-12T06:43:38;33.00;27.00;17.00
73825;PMS5003;64145;55.060;73.168;2023-02-12T06:46:04;33.67;26.00;16.00
73825;PMS5003;64145;55.060;73.168;2023-02-12T06:48:30;31.50;26.00;16.00
73825;PMS5003;64145;55.060;73.168;2023-02-12T06:51:08;31.00;25.50;14.25
73825;PMS5003;64145;55.060;73.168;2023-02-12T06:53:35;32.00;25.00;14.00
73825;PMS5003;64145;55.060;73.168;2023-02-12T06:56:01;32.75;25.50;16.00
73825;PMS5003;64145;55.060;73.168;2023-02-12T06:58:41;33.00;26.25;17.00
73825;PMS5003;64145;55.060;73.168;2023-02-12T07:01:16;31.25;25.50;16.00
73825;PMS5003;64145;55.060;73.168;2023-02-12T07:03:43;32.00;25.50;15.00
73825;PMS5003;64145;55.060;73.168;2023-02-12T07:06:09;30.00;24.75;15.00
73825;PMS5003;64145;55.060;73.168;2023-02-12T07:08:35;33.25;26.00;15.50
73825;PMS5003;64145;55.060;73.168;2023-02-12T07:11:10;33.50;27.25;16.75
73825;PMS5003;64145;55.060;73.168;2023-02-12T07:13:46;32.50;27.25;17.00
73825;PMS5003;64145;55.060;73.168;2023-02-12T07:16:12;35.33;28.00;17.00
73825;PMS5003;64145;55.060;73.168;2023-02-12T07:18:38;37.00;29.50;18.00
73825;PMS5003;64145;55.060;73.168;2023-02-12T07:21:05;37.50;29.50;18.00
73825;PMS5003;64145;55.060;73.168;2023-02-12T07:23:46;37.75;29.25;18.00
73825;PMS5003;64145;55.060;73.168;2023-02-12T07:26:18;39.25;31.00;18.50
73825;PMS5003;64145;55.060;73.168;2023-02-12T07:28:43;38.00;30.00;18.50
73825;PMS5003;64145;55.060;73.168;2023-02-12T07:31:13;40.00;31.00;18.33
73825;PMS5003;64145;55.060;73.168;2023-02-12T07:33:39;41.00;31.00;20.00
73825;PMS5003;64145;55.060;73.168;2023-02-12T07:36:08;39.50;30.25;19.00
73825;PMS5003;64145;55.060;73.168;2023-02-12T07:38:34;40.00;31.25;19.00
73825;PMS5003;64145;55.060;73.168;2023-02-12T07:41:17;38.75;31.75;19.50
73825;PMS5003;64145;55.060;73.168;2023-02-12T07:43:44;39.75;31.25;19.00
73825;PMS5003;64145;55.060;73.168;2023-02-12T07:46:11;41.25;32.00;20.00
73825;PMS5003;64145;55.060;73.168;2023-02-12T07:48:40;41.00;32.00;20.00
73825;PMS5003;64145;55.060;73.168;2023-02-12T07:51:16;38.00;30.00;18.50
73825;PMS5003;64145;55.060;73.168;2023-02-12T07:53:50;37.50;29.00;18.00
73825;PMS5003;64145;55.060;73.168;2023-02-12T07:56:17;35.33;28.00;18.00
73825;PMS5003;64145;55.060;73.168;2023-02-12T07:58:43;39.50;31.50;18.75
73825;PMS5003;64145;55.060;73.168;2023-02-12T08:01:30;40.50;32.00;19.00
73825;PMS5003;64145;55.060;73.168;2023-02-12T08:04:00;37.50;29.25;18.50
73825;PMS5003;64145;55.060;73.168;2023-02-12T08:06:26;39.50;30.00;18.50
73825;PMS5003;64145;55.060;73.168;2023-02-12T08:08:53;40.75;32.00;19.00
73825;PMS5003;64145;55.060;73.168;2023-02-12T08:11:19;39.25;31.00;19.00
73825;PMS5003;64145;55.060;73.168;2023-02-12T08:13:44;40.00;31.00;19.00
73825;PMS5003;64145;55.060;73.168;2023-02-12T08:16:11;38.00;30.00;18.00
73825;PMS5003;64145;55.060;73.168;2023-02-12T08:18:42;37.00;30.00;19.00
73825;PMS5003;64145;55.060;73.168;2023-02-12T08:21:09;38.00;30.50;18.75
73825;PMS5003;64145;55.060;73.168;2023-02-12T08:23:35;40.50;31.50;20.00
73825;PMS5003;64145;55.060;73.168;2023-02-12T08:28:36;42.00;32.00;19.00
73825;PMS5003;64145;55.060;73.168;2023-02-12T08:31:03;41.00;32.25;20.00
73825;PMS5003;64145;55.060;73.168;2023-02-12T08:33:29;40.75;33.25;21.00
73825;PMS5003;64145;55.060;73.168;2023-02-12T08:36:05;42.75;34.00;21.00
73825;PMS5003;64145;55.060;73.168;2023-02-12T08:38:42;44.25;35.00;21.50
73825;PMS5003;64145;55.060;73.168;2023-02-12T08:41:22;43.00;33.50;21.00
73825;PMS5003;64145;55.060;73.168;2023-02-12T08:43:48;42.25;33.50;21.00
73825;PMS5003;64145;55.060;73.168;2023-02-12T08:46:20;44.00;33.75;21.50
73825;PMS5003;64145;55.060;73.168;2023-02-12T08:48:55;40.75;32.25;20.00
73825;PMS5003;64145;55.060;73.168;2023-02-12T08:51:22;41.00;33.00;20.00
73825;PMS5003;64145;55.060;73.168;2023-02-12T08:53:51;41.00;32.00;19.00
73825;PMS5003;64145;55.060;73.168;2023-02-12T08:56:23;39.50;31.00;19.00
73825;PMS5003;64145;55.060;73.168;2023-02-12T08:58:49;40.00;31.00;20.00
73825;PMS5003;64145;55.060;73.168;2023-02-12T09:01:24;40.00;31.50;20.00
73825;PMS5003;64145;55.060;73.168;2023-02-12T09:03:55;40.75;31.75;19.00
73825;PMS5003;64145;55.060;73.168;2023-02-12T09:06:22;41.00;31.00;19.00
73825;PMS5003;64145;55.060;73.168;2023-02-12T09:08:48;42.50;33.00;20.00
73825;PMS5003;64145;55.060;73.168;2023-02-12T09:11:15;40.00;30.25;19.50
73825;PMS5003;64145;55.060;73.168;2023-02-12T09:13:45;39.00;30.00;19.00
73825;PMS5003;64145;55.060;73.168;2023-02-12T09:16:21;38.00;29.75;18.75
73825;PMS5003;64145;55.060;73.168;2023-02-12T09:18:47;39.33;31.33;19.33
73825;PMS5003;64145;55.060;73.168;2023-02-12T09:21:13;40.33;31.00;19.33
73825;PMS5003;64145;55.060;73.168;2023-02-12T09:23:40;40.75;31.00;19.00
73825;PMS5003;64145;55.060;73.168;2023-02-12T09:26:12;39.50;31.25;19.50
73825;PMS5003;64145;55.060;73.168;2023-02-12T09:28:39;41.25;31.50;19.50
73825;PMS5003;64145;55.060;73.168;2023-02-12T09:31:06;41.50;32.75;20.25
73825;PMS5003;64145;55.060;73.168;2023-02-12T09:33:32;43.50;33.50;21.25
73825;PMS5003;64145;55.060;73.168;2023-02-12T09:36:01;42.00;33.00;20.00
73825;PMS5003;64145;55.060;73.168;2023-02-12T09:38:27;41.75;33.00;19.75
73825;PMS5003;64145;55.060;73.168;2023-02-12T09:43:35;41.00;31.50;19.25
73825;PMS5003;64145;55.060;73.168;2023-02-12T09:46:11;39.50;31.50;19.50
73825;PMS5003;64145;55.060;73.168;2023-02-12T09:48:59;41.00;31.50;19.50
73825;PMS5003;64145;55.060;73.168;2023-02-12T09:51:28;42.00;33.00;20.00
73825;PMS5003;64145;55.060;73.168;2023-02-12T09:54:00;41.25;32.50;20.00
73825;PMS5003;64145;55.060;73.168;2023-02-12T09:56:27;41.00;31.75;19.50
73825;PMS5003;64145;55.060;73.168;2023-02-12T09:58:54;41.00;32.00;19.33
73825;PMS5003;64145;55.060;73.168;2023-02-12T10:01:21;43.00;33.50;20.00
73825;PMS5003;64145;55.060;73.168;2023-02-12T10:03:48;41.25;33.00;20.00
73825;PMS5003;64145;55.060;73.168;2023-02-12T10:06:25;41.00;32.00;20.00
73825;PMS5003;64145;55.060;73.168;2023-02-12T10:09:05;39.50;31.50;19.50
73825;PMS5003;64145;55.060;73.168;2023-02-12T10:14:20;41.50;31.50;19.50
73825;PMS5003;64145;55.060;73.168;2023-02-12T10:16:54;42.00;33.00;19.00
73825;PMS5003;64145;55.060;73.168;2023-02-12T10:24:47;38.75;30.25;19.00
73825;PMS5003;64145;55.060;73.168;2023-02-12T10:27:16;37.00;29.00;18.00
73825;PMS5003;64145;55.060;73.168;2023-02-12T10:29:50;37.75;29.00;18.00
73825;PMS5003;64145;55.060;73.168;2023-02-12T10:32:20;36.50;30.00;18.00
73825;PMS5003;64145;55.060;73.168;2023-02-12T10:34:48;37.00;29.25;18.00
73825;PMS5003;64145;55.060;73.168;2023-02-12T10:42:51;35.75;27.50;17.00
73825;PMS5003;64145;55.060;73.168;2023-02-12T10:45:18;36.75;29.00;17.00
73825;PMS5003;64145;55.060;73.168;2023-02-12T10:47:45;37.00;28.75;18.00
73825;PMS5003;64145;55.060;73.168;2023-02-12T10:50:16;37.50;29.00;18.50
73825;PMS5003;64145;55.060;73.168;2023-02-12T10:52:46;38.50;30.00;18.00
73825;PMS5003;64145;55.060;73.168;2023-02-12T10:55:32;39.75;30.75;19.00
73825;PMS5003;64145;55.060;73.168;2023-02-12T10:57:58;43.00;33.75;21.00
73825;PMS5003;64145;55.060;73.168;2023-02-12T11:00:26;43.00;33.00;20.50
73825;PMS5003;64145;55.060;73.168;2023-02-12T11:03:00;38.75;30.00;20.00
73825;PMS5003;64145;55.060;73.168;2023-02-12T11:05:28;41.00;31.75;19.50
73825;PMS5003;64145;55.060;73.168;2023-02-12T11:07:59;40.25;31.00;20.00
73825;PMS5003;64145;55.060;73.168;2023-02-12T11:10:29;40.33;32.00;20.33
73825;PMS5003;64145;55.060;73.168;2023-02-12T11:12:58;40.50;32.00;21.00
73825;PMS5003;64145;55.060;73.168;2023-02-12T11:15:25;41.00;31.50;20.00
73825;PMS5003;64145;55.060;73.168;2023-02-12T11:17:58;41.50;33.00;20.00
73825;PMS5003;64145;55.060;73.168;2023-02-12T11:20:28;43.75;33.50;21.00
73825;PMS5003;64145;55.060;73.168;2023-02-12T11:23:06;45.50;35.50;22.25
73825;PMS5003;64145;55.060;73.168;2023-02-12T11:25:53;48.50;38.75;22.00
73825;PMS5003;64145;55.060;73.168;2023-02-12T11:28:18;48.50;39.00;22.00
73825;PMS5003;64145;55.060;73.168;2023-02-12T11:33:16;45.00;35.00;22.00
73825;PMS5003;64145;55.060;73.168;2023-02-12T11:35:48;45.75;35.25;22.00
73825;PMS5003;64145;55.060;73.168;2023-02-12T11:38:29;45.50;34.00;22.00
73825;PMS5003;64145;55.060;73.168;2023-02-12T11:41:08;44.50;33.00;21.00
73825;PMS5003;64145;55.060;73.168;2023-02-12T11:43:53;40.75;31.25;20.00
73825;PMS5003;64145;55.060;73.168;2023-02-12T11:46:21;40.00;30.50;20.00
73825;PMS5003;64145;55.060;73.168;2023-02-12T11:48:47;39.00;30.00;19.00
73825;PMS5003;64145;55.060;73.168;2023-02-12T11:51:46;38.00;30.00;19.00
73825;PMS5003;64145;55.060;73.168;2023-02-12T11:54:04;38.50;30.00;18.50
73825;PMS5003;64145;55.060;73.168;2023-02-12T11:56:41;39.50;30.50;19.00
73825;PMS5003;64145;55.060;73.168;2023-02-12T12:01:49;65.00;56.50;32.00
73825;PMS5003;64145;55.060;73.168;2023-02-12T12:04:16;50.50;44.50;25.25
73825;PMS5003;64145;55.060;73.168;2023-02-12T12:06:49;45.75;38.50;22.00
73825;PMS5003;64145;55.060;73.168;2023-02-12T12:09:20;43.50;33.75;21.00
73825;PMS5003;64145;55.060;73.168;2023-02-12T12:14:30;42.00;32.00;20.00
73825;PMS5003;64145;55.060;73.168;2023-02-12T12:17:05;38.00;29.50;18.00
73825;PMS5003;64145;55.060;73.168;2023-02-12T12:20:02;35.25;28.00;17.50
73825;PMS5003;64145;55.060;73.168;2023-02-12T12:23:14;36.00;29.00;18.00
73825;PMS5003;64145;55.060;73.168;2023-02-12T12:30:37;32.50;27.00;16.25
73825;PMS5003;64145;55.060;73.168;2023-02-12T12:33:11;33.00;25.00;15.00
73825;PMS5003;64145;55.060;73.168;2023-02-12T12:38:34;32.00;26.50;16.00
73825;PMS5003;64145;55.060;73.168;2023-02-12T12:46:25;31.00;25.00;15.00
73825;PMS5003;64145;55.060;73.168;2023-02-12T12:51:55;32.25;25.25;15.00
73825;PMS5003;64145;55.060;73.168;2023-02-12T12:54:36;32.75;25.00;15.00
73825;PMS5003;64145;55.060;73.168;2023-02-12T13:00:13;33.50;26.75;17.00
73825;PMS5003;64145;55.060;73.168;2023-02-12T13:05:56;37.50;29.50;17.00
73825;PMS5003;64145;55.060;73.168;2023-02-12T13:13:44;47.00;39.25;23.75
73825;PMS5003;64145;55.060;73.168;2023-02-12T13:16:29;49.00;43.25;25.00
73825;PMS5003;64145;55.060;73.168;2023-02-12T13:19:12;47.50;41.75;24.00
73825;PMS5003;64145;55.060;73.168;2023-02-12T13:24:18;48.00;40.50;24.25
73825;PMS5003;64145;55.060;73.168;2023-02-12T13:26:51;46.00;38.00;22.50
73825;PMS5003;64145;55.060;73.168;2023-02-12T13:32:04;41.50;32.75;21.00
73825;PMS5003;64145;55.060;73.168;2023-02-12T13:34:36;43.50;34.50;21.00
73825;PMS5003;64145;55.060;73.168;2023-02-12T13:37:14;57.25;52.00;30.50
73825;PMS5003;64145;55.060;73.168;2023-02-12T13:39:48;66.25;59.50;34.00
73825;PMS5003;64145;55.060;73.168;2023-02-12T13:44:46;80.50;70.75;43.00
73825;PMS5003;64145;55.060;73.168;2023-02-12T13:47:25;76.25;68.00;40.50
73825;PMS5003;64145;55.060;73.168;2023-02-12T13:49:59;70.00;63.50;36.50
73825;PMS5003;64145;55.060;73.168;2023-02-12T13:55:34;64.50;58.50;35.00
73825;PMS5003;64145;55.060;73.168;2023-02-12T13:58:45;64.25;57.75;33.00
73825;PMS5003;64145;55.060;73.168;2023-02-12T14:03:22;52.00;45.00;26.00
73825;PMS5003;64145;55.060;73.168;2023-02-12T14:05:47;44.00;35.00;21.25
73825;PMS5003;64145;55.060;73.168;2023-02-12T14:08:35;40.00;31.00;19.00
73825;PMS5003;64145;55.060;73.168;2023-02-12T14:11:03;39.00;31.00;19.50
73825;PMS5003;64145;55.060;73.168;2023-02-12T14:13:35;44.50;34.75;21.75
73825;PMS5003;64145;55.060;73.168;2023-02-12T14:21:38;43.75;35.00;22.00
73825;PMS5003;64145;55.060;73.168;2023-02-12T14:26:52;40.75;32.00;20.00
73825;PMS5003;64145;55.060;73.168;2023-02-12T14:29:18;40.67;32.33;20.33
73825;PMS5003;64145;55.060;73.168;2023-02-12T14:31:48;44.25;35.00;21.50
73825;PMS5003;64145;55.060;73.168;2023-02-12T14:36:41;45.75;37.75;22.00
73825;PMS5003;64145;55.060;73.168;2023-02-12T14:41:52;43.25;33.75;22.00
73825;PMS5003;64145;55.060;73.168;2023-02-12T14:46:55;41.75;32.00;20.50
73825;PMS5003;64145;55.060;73.168;2023-02-12T14:52:00;43.50;33.00;20.75
73825;PMS5003;64145;55.060;73.168;2023-02-12T15:00:38;61.50;54.50;31.00
73825;PMS5003;64145;55.060;73.168;2023-02-12T15:03:00;51.50;47.00;26.00
73825;PMS5003;64145;55.060;73.168;2023-02-12T15:05:28;48.00;40.25;24.00
73825;PMS5003;64145;55.060;73.168;2023-02-12T15:07:56;44.75;35.50;21.00
73825;PMS5003;64145;55.060;73.168;2023-02-12T15:10:36;39.00;31.00;20.00
73825;PMS5003;64145;55.060;73.168;2023-02-12T15:13:30;37.25;29.00;19.00
73825;PMS5003;64145;55.060;73.168;2023-02-12T15:16:02;33.00;27.00;17.00
73825;PMS5003;64145;55.060;73.168;2023-02-12T15:21:19;40.50;31.25;19.50
73825;PMS5003;64145;55.060;73.168;2023-02-12T15:23:55;69.00;59.00;32.50
73825;PMS5003;64145;55.060;73.168;2023-02-12T15:26:21;75.75;66.25;37.25
73825;PMS5003;64145;55.060;73.168;2023-02-12T15:28:59;74.25;66.25;37.75
73825;PMS5003;64145;55.060;73.168;2023-02-12T15:31:26;73.67;66.00;37.00
73825;PMS5003;64145;55.060;73.168;2023-02-12T15:33:53;68.25;61.25;35.00
73825;PMS5003;64145;55.060;73.168;2023-02-12T15:36:21;65.25;58.50;34.00
73825;PMS5003;64145;55.060;73.168;2023-02-12T15:38:54;66.25;60.50;34.25
73825;PMS5003;64145;55.060;73.168;2023-02-12T15:41:36;66.25;60.75;35.00
73825;PMS5003;64145;55.060;73.168;2023-02-12T15:44:03;67.00;60.50;35.00
73825;PMS5003;64145;55.060;73.168;2023-02-12T15:46:53;65.75;59.00;34.00
73825;PMS5003;64145;55.060;73.168;2023-02-12T15:49:20;62.50;56.50;34.00
73825;PMS5003;64145;55.060;73.168;2023-02-12T15:51:53;65.75;60.75;36.00
73825;PMS5003;64145;55.060;73.168;2023-02-12T15:54:29;68.75;63.25;38.00
73825;PMS5003;64145;55.060;73.168;2023-02-12T15:56:55;70.00;63.00;37.00
73825;PMS5003;64145;55.060;73.168;2023-02-12T15:59:26;64.00;56.75;33.25
73825;PMS5003;64145;55.060;73.168;2023-02-12T16:01:54;58.00;51.25;31.25
73825;PMS5003;64145;55.060;73.168;2023-02-12T16:04:20;57.00;50.75;30.00
73825;PMS5003;64145;55.060;73.168;2023-02-12T16:06:46;56.33;51.00;30.67
73825;PMS5003;64145;55.060;73.168;2023-02-12T16:09:28;52.25;48.75;29.50
73825;PMS5003;64145;55.060;73.168;2023-02-12T16:11:55;53.75;47.75;29.00
73825;PMS5003;64145;55.060;73.168;2023-02-12T16:14:35;54.75;49.00;28.75